Time;durP1;ratioP1;P1;durP2;ratioP2;P2;SDS_P1;SDS_P2;PMS_P1;PMS_P2;Temp;Humidity;BMP_temperature;BMP_pressure;BME280_temperature;BME280_humidity;BME280_pressure;Samples;Min_cycle;Max_cycle;Signal;HPM_P1;HPM_P2
2023/05/31 00:01:31;;;;;;;5.72;3.15;;;25.10;50.90;;;;;;5091614;28;20040;-76
2023/05/31 00:03:57;;;;;;;3.78;3.15;;;25.10;50.90;;;;;;5080669;28;20044;-75
2023/05/31 00:06:23;;;;;;;8.70;3.50;;;25.00;50.90;;;;;;5070007;28;20123;-75
2023/05/31 00:08:49;;;;;;;5.65;3.17;;;25.00;51.00;;;;;;5071133;28;20025;-75
2023/05/31 00:11:15;;;;;;;7.57;4.03;;;25.10;51.10;;;;;;5077912;28;20562;-76
2023/05/31 00:13:41;;;;;;;8.02;3.53;;;25.10;51.00;;;;;;5091092;28;20032;-76
2023/05/31 00:16:08;;;;;;;5.13;3.28;;;25.00;51.20;;;;;;5089974;28;20524;-74
2023/05/31 00:18:34;;;;;;;8.25;3.22;;;24.90;51.20;;;;;;5091367;28;20032;-76
2023/05/31 00:21:00;;;;;;;7.15;3.30;;;25.00;51.20;;;;;;5089902;28;20031;-75
2023/05/31 00:23:26;;;;;;;5.70;3.33;;;24.90;51.40;;;;;;5089765;28;20139;-76
2023/05/31 00:25:52;;;;;;;5.60;3.35;;;24.90;51.60;;;;;;5091266;28;20119;-76
2023/05/31 00:28:18;;;;;;;9.48;3.67;;;24.90;51.60;;;;;;5091217;28;20115;-75
2023/05/31 00:30:44;;;;;;;6.05;3.60;;;24.80;51.60;;;;;;5089939;28;20387;-76
2023/05/31 00:33:13;;;;;;;4.78;3.33;;;24.80;51.60;;;;;;5091120;28;20039;-76
2023/05/31 00:35:39;;;;;;;5.40;3.38;;;24.90;51.80;;;;;;5091190;28;20073;-75
2023/05/31 00:38:07;;;;;;;6.70;3.40;;;24.90;51.60;;;;;;5091139;28;20050;-76
2023/05/31 00:40:34;;;;;;;6.32;3.22;;;24.80;51.90;;;;;;5091011;28;20040;-76
2023/05/31 00:43:00;;;;;;;4.57;2.97;;;24.90;52.00;;;;;;5090014;28;20461;-76
2023/05/31 00:45:28;;;;;;;7.03;3.63;;;24.90;52.00;;;;;;5091215;28;20060;-75
2023/05/31 00:47:56;;;;;;;8.05;3.28;;;24.90;52.00;;;;;;5091099;28;20189;-75
2023/05/31 00:50:22;;;;;;;7.72;3.15;;;25.00;52.00;;;;;;5091105;28;20035;-75
2023/05/31 00:52:51;;;;;;;6.78;3.40;;;24.90;52.00;;;;;;5091072;28;20028;-75
2023/05/31 00:55:17;;;;;;;8.90;3.20;;;25.00;52.00;;;;;;5090759;28;20036;-75
2023/05/31 00:57:43;;;;;;;4.63;2.63;;;24.90;52.00;;;;;;5089909;28;20028;-76
2023/05/31 01:00:10;;;;;;;6.95;3.30;;;24.90;52.00;;;;;;5089841;28;20039;-75
2023/05/31 01:02:37;;;;;;;5.85;3.30;;;24.80;51.90;;;;;;5072724;28;20060;-76
2023/05/31 01:05:08;;;;;;;9.13;2.92;;;25.00;52.00;;;;;;5072875;28;20090;-76
2023/05/31 01:07:35;;;;;;;9.70;3.47;;;25.00;52.00;;;;;;5090933;28;20068;-75
2023/05/31 01:10:03;;;;;;;9.80;3.45;;;24.80;51.90;;;;;;5091532;28;20475;-76
2023/05/31 01:12:56;;;;;;;4.80;3.35;;;24.80;51.90;;;;;;5094561;28;20063;-75
2023/05/31 01:15:27;;;;;;;6.05;3.33;;;24.80;51.90;;;;;;5094726;28;20092;-76
2023/05/31 01:18:03;;;;;;;8.13;3.30;;;24.80;51.90;;;;;;5094707;28;20154;-76
2023/05/31 01:20:34;;;;;;;9.32;3.15;;;24.80;51.90;;;;;;5094236;28;20040;-75
2023/05/31 01:23:28;;;;;;;5.78;3.28;;;24.90;52.00;;;;;;5094166;28;20535;-76
2023/05/31 01:26:31;;;;;;;7.65;3.50;;;24.70;51.90;;;;;;5092890;28;20036;-76
2023/05/31 01:29:03;;;;;;;4.60;2.75;;;24.70;51.90;;;;;;5092981;28;20384;-75
2023/05/31 01:31:33;;;;;;;6.78;3.58;;;24.70;51.90;;;;;;5094452;28;20449;-75
2023/05/31 01:34:00;;;;;;;7.85;3.75;;;24.70;51.90;;;;;;5094111;28;20035;-76
2023/05/31 01:36:26;;;;;;;4.80;3.08;;;24.80;52.00;;;;;;5092967;28;20104;-76
2023/05/31 01:38:52;;;;;;;4.43;3.03;;;24.60;51.90;;;;;;5092992;28;20055;-75
2023/05/31 01:41:20;;;;;;;5.93;3.38;;;24.70;52.10;;;;;;5093915;28;20082;-75
2023/05/31 01:43:47;;;;;;;5.15;3.03;;;24.70;52.00;;;;;;5094012;28;20464;-77
2023/05/31 01:46:16;;;;;;;6.25;3.20;;;24.60;52.00;;;;;;5093896;28;20032;-76
2023/05/31 01:48:42;;;;;;;5.03;3.20;;;24.60;52.00;;;;;;5059044;28;20047;-76
2023/05/31 01:51:11;;;;;;;5.95;3.20;;;24.60;52.00;;;;;;5090960;28;20052;-75
2023/05/31 01:53:38;;;;;;;6.40;3.20;;;24.60;52.00;;;;;;5074221;28;20036;-76
2023/05/31 01:56:05;;;;;;;10.80;3.88;;;24.60;52.00;;;;;;5068186;28;20112;-75
2023/05/31 01:58:32;;;;;;;4.13;3.20;;;24.60;52.00;;;;;;5034573;28;20029;-76
2023/05/31 02:00:59;;;;;;;7.80;3.47;;;24.60;52.00;;;;;;5034640;28;20118;-75
2023/05/31 02:03:25;;;;;;;9.25;3.30;;;24.70;52.10;;;;;;5034448;28;20037;-75
2023/05/31 02:05:59;;;;;;;7.18;3.38;;;24.80;52.10;;;;;;5034407;28;20045;-76
2023/05/31 02:08:26;;;;;;;5.47;3.50;;;24.70;52.00;;;;;;5051200;28;20130;-76
2023/05/31 02:10:53;;;;;;;5.28;3.20;;;24.70;52.10;;;;;;5050944;28;20495;-76
2023/05/31 02:13:20;;;;;;;3.60;2.78;;;24.70;52.10;;;;;;5030756;28;20077;-76
2023/05/31 02:15:46;;;;;;;7.32;3.10;;;24.70;51.90;;;;;;4997927;28;20049;-75
2023/05/31 02:18:16;;;;;;;5.65;3.60;;;24.70;51.90;;;;;;5017380;28;20044;-76
2023/05/31 02:20:44;;;;;;;6.25;3.33;;;24.70;51.90;;;;;;5033680;28;20040;-74
2023/05/31 02:23:17;;;;;;;7.70;3.65;;;24.70;51.90;;;;;;5049259;28;20044;-74
2023/05/31 02:25:46;;;;;;;5.00;3.15;;;24.60;51.90;;;;;;5050511;28;20102;-76
2023/05/31 02:28:12;;;;;;;8.75;3.45;;;24.70;51.90;;;;;;5047400;28;20040;-75
2023/05/31 02:30:38;;;;;;;8.52;3.15;;;24.60;51.80;;;;;;5073874;28;20079;-77
2023/05/31 02:33:04;;;;;;;6.15;3.28;;;24.60;51.90;;;;;;5073343;28;20051;-76
2023/05/31 02:35:32;;;;;;;12.32;3.67;;;24.70;52.10;;;;;;5073832;28;20467;-75
2023/05/31 02:37:58;;;;;;;7.10;3.60;;;24.50;51.90;;;;;;5073372;28;20036;-75
2023/05/31 02:40:24;;;;;;;5.60;2.88;;;24.50;51.90;;;;;;5090531;28;20040;-75
2023/05/31 02:42:50;;;;;;;6.13;3.53;;;24.50;51.90;;;;;;5090324;28;20052;-76
2023/05/31 02:45:16;;;;;;;7.20;3.65;;;24.50;51.90;;;;;;5089246;28;20127;-75
2023/05/31 02:47:42;;;;;;;5.45;3.17;;;24.50;52.00;;;;;;5092825;28;20028;-76
2023/05/31 02:50:09;;;;;;;8.15;3.25;;;24.50;52.10;;;;;;5075003;28;20043;-75
2023/05/31 02:52:43;;;;;;;4.28;3.28;;;24.50;52.20;;;;;;5091681;28;20098;-75
2023/05/31 02:55:47;;;;;;;9.15;3.80;;;24.40;52.00;;;;;;5050265;28;20161;-75
2023/05/31 02:58:19;;;;;;;8.98;3.72;;;24.50;52.10;;;;;;5049883;28;20432;-75
2023/05/31 03:01:03;;;;;;;5.47;3.20;;;24.50;52.10;;;;;;5049957;28;20084;-75
2023/05/31 03:03:31;;;;;;;8.38;3.53;;;24.60;52.10;;;;;;5049729;28;20037;-76
2023/05/31 03:06:02;;;;;;;6.13;2.70;;;24.40;52.00;;;;;;5049895;28;20116;-77
2023/05/31 03:08:28;;;;;;;4.32;3.13;;;24.60;52.20;;;;;;5049425;28;20044;-75
2023/05/31 03:10:54;;;;;;;5.55;3.53;;;24.40;52.00;;;;;;5049699;28;20025;-75
2023/05/31 03:13:20;;;;;;;4.85;3.15;;;24.60;52.10;;;;;;5049232;28;20052;-76
2023/05/31 03:15:46;;;;;;;6.97;3.67;;;24.60;52.10;;;;;;5049690;28;20060;-76
2023/05/31 03:18:12;;;;;;;7.03;3.22;;;24.50;52.10;;;;;;5049671;28;20036;-76
2023/05/31 03:20:40;;;;;;;5.40;3.60;;;24.60;52.10;;;;;;5049584;28;20052;-76
2023/05/31 03:23:07;;;;;;;9.30;3.95;;;24.70;52.10;;;;;;5049234;28;20029;-75
2023/05/31 03:25:34;;;;;;;7.10;3.90;;;24.60;51.90;;;;;;5053486;28;20049;-77
2023/05/31 03:28:01;;;;;;;7.00;3.58;;;24.50;51.90;;;;;;5090923;28;20028;-76
2023/05/31 03:30:27;;;;;;;4.20;3.40;;;24.60;51.90;;;;;;5090594;28;20043;-74
2023/05/31 03:32:58;;;;;;;7.28;3.50;;;24.70;51.90;;;;;;5090443;28;20119;-76
2023/05/31 03:35:23;;;;;;;8.77;4.20;;;24.60;51.80;;;;;;5091702;28;20115;-75
2023/05/31 03:37:50;;;;;;;7.50;4.15;;;24.70;51.90;;;;;;5072196;28;20208;-75
2023/05/31 03:40:16;;;;;;;10.02;4.00;;;24.60;51.70;;;;;;5089158;28;20036;-76
2023/05/31 03:42:42;;;;;;;8.70;4.05;;;24.70;51.70;;;;;;5072473;28;20129;-74
2023/05/31 03:45:09;;;;;;;5.90;3.47;;;24.70;51.60;;;;;;5088995;28;20067;-76
2023/05/31 03:47:35;;;;;;;6.15;3.00;;;24.70;51.60;;;;;;5085313;28;20047;-76
2023/05/31 03:50:05;;;;;;;4.60;2.97;;;24.70;51.70;;;;;;5072523;28;20055;-75
2023/05/31 03:52:32;;;;;;;3.78;2.60;;;24.70;51.60;;;;;;5072347;28;20447;-75
2023/05/31 03:54:58;;;;;;;7.30;2.65;;;24.60;51.60;;;;;;5088586;28;20048;-72
2023/05/31 03:57:24;;;;;;;6.45;2.92;;;24.70;51.40;;;;;;5072208;28;20051;-74
2023/05/31 03:59:50;;;;;;;9.25;2.92;;;24.80;50.70;;;;;;5089202;28;20063;-72
2023/05/31 04:02:17;;;;;;;4.25;3.42;;;24.80;49.80;;;;;;5072048;28;20663;-73
2023/05/31 04:04:43;;;;;;;10.57;3.38;;;24.80;48.80;;;;;;5072123;28;20159;-72
2023/05/31 04:07:09;;;;;;;6.35;2.88;;;24.90;47.90;;;;;;5089088;28;20031;-72
2023/05/31 04:09:35;;;;;;;4.70;3.05;;;25.00;47.10;;;;;;5091055;28;20115;-72
2023/05/31 04:12:02;;;;;;;9.13;3.47;;;25.00;46.40;;;;;;5091570;28;20028;-72
2023/05/31 04:14:28;;;;;;;8.85;4.90;;;25.10;45.80;;;;;;5089828;28;20032;-72
2023/05/31 04:16:57;;;;;;;11.75;4.68;;;25.00;45.20;;;;;;5090173;28;20093;-70
2023/05/31 04:19:23;;;;;;;13.77;4.80;;;25.10;44.80;;;;;;5091464;28;20063;-70
2023/05/31 04:21:50;;;;;;;10.52;4.03;;;25.00;44.80;;;;;;5090162;28;20093;-71
2023/05/31 04:24:17;;;;;;;10.30;5.55;;;25.10;46.60;;;;;;5072628;28;20438;-70
2023/05/31 04:26:44;;;;;;;8.32;4.45;;;25.50;49.30;;;;;;5081020;28;20480;-71
2023/05/31 04:29:11;;;;;;;8.55;4.07;;;25.80;55.10;;;;;;5069764;28;20059;-70
2023/05/31 04:31:37;;;;;;;8.98;4.18;;;26.10;51.90;;;;;;5069808;28;20522;-71
2023/05/31 04:34:04;;;;;;;5.05;3.67;;;26.20;49.90;;;;;;5069464;28;20052;-69
2023/05/31 04:36:32;;;;;;;10.32;4.80;;;26.00;48.20;;;;;;5068302;28;20039;-70
2023/05/31 04:38:59;;;;;;;5.72;4.15;;;25.90;45.90;;;;;;5069648;28;20038;-71
2023/05/31 04:41:28;;;;;;;11.93;4.55;;;25.90;45.10;;;;;;5053166;28;20434;-70
2023/05/31 04:43:56;;;;;;;9.75;4.70;;;25.90;45.00;;;;;;5069308;28;20544;-70
2023/05/31 04:46:24;;;;;;;9.57;4.30;;;25.90;44.70;;;;;;5072222;28;20045;-70
2023/05/31 04:48:51;;;;;;;7.82;3.90;;;26.00;45.20;;;;;;5073359;28;20028;-70
2023/05/31 04:51:19;;;;;;;6.80;4.25;;;25.70;44.90;;;;;;5092030;28;20044;-71
2023/05/31 04:53:45;;;;;;;10.50;4.78;;;25.80;45.10;;;;;;5075590;28;20093;-70
2023/05/31 04:56:13;;;;;;;7.80;3.92;;;25.80;45.20;;;;;;5075047;28;20067;-72
2023/05/31 04:58:40;;;;;;;9.52;4.63;;;25.70;44.90;;;;;;5092201;28;20036;-72
2023/05/31 05:01:07;;;;;;;13.98;4.72;;;25.70;41.40;;;;;;5074788;28;20032;-71
2023/05/31 05:03:44;;;;;;;12.23;4.60;;;25.60;40.70;;;;;;5075237;28;20067;-72
2023/05/31 05:06:14;;;;;;;11.55;4.88;;;25.60;41.10;;;;;;5091468;28;20056;-72
2023/05/31 05:08:40;;;;;;;11.70;5.35;;;25.50;41.60;;;;;;5092015;28;20114;-71
2023/05/31 05:11:07;;;;;;;12.65;5.07;;;25.50;41.80;;;;;;5058322;28;20059;-70
2023/05/31 05:13:34;;;;;;;10.60;4.93;;;25.40;42.20;;;;;;5074615;28;20040;-72
2023/05/31 05:16:02;;;;;;;11.40;4.72;;;25.70;42.60;;;;;;5074505;28;20028;-72
2023/05/31 05:18:29;;;;;;;11.70;5.25;;;25.60;42.90;;;;;;5074782;28;20045;-71
2023/05/31 05:20:56;;;;;;;9.73;4.28;;;25.60;43.20;;;;;;5091522;28;20064;-71
2023/05/31 05:23:25;;;;;;;12.00;4.28;;;25.60;43.40;;;;;;5072147;28;20524;-73
2023/05/31 05:25:53;;;;;;;10.13;4.55;;;25.50;43.50;;;;;;5072129;28;20090;-72
2023/05/31 05:28:19;;;;;;;9.27;5.03;;;25.60;43.80;;;;;;5072269;28;20039;-72
2023/05/31 05:30:45;;;;;;;7.53;4.15;;;25.40;44.10;;;;;;5072702;28;20115;-73
2023/05/31 05:33:12;;;;;;;5.38;4.22;;;25.60;44.40;;;;;;5072285;28;20039;-72
2023/05/31 05:35:38;;;;;;;4.90;3.90;;;25.60;44.60;;;;;;5055541;28;20044;-72
2023/05/31 05:38:04;;;;;;;9.30;3.80;;;25.50;44.90;;;;;;5072298;28;20032;-72
2023/05/31 05:40:30;;;;;;;7.75;3.85;;;25.50;45.00;;;;;;5074780;28;20160;-71
2023/05/31 05:42:56;;;;;;;8.77;3.97;;;25.70;45.20;;;;;;5072511;28;20149;-72
2023/05/31 05:45:23;;;;;;;6.40;3.97;;;25.60;45.50;;;;;;5072211;28;20046;-71
2023/05/31 05:47:49;;;;;;;7.85;3.72;;;25.80;44.90;;;;;;5072505;28;20033;-72
2023/05/31 05:50:17;;;;;;;7.40;3.50;;;25.50;44.80;;;;;;5072128;28;20124;-71
2023/05/31 05:52:43;;;;;;;9.75;4.32;;;25.60;45.90;;;;;;5072234;28;20401;-70
2023/05/31 05:55:09;;;;;;;6.10;4.15;;;25.70;46.90;;;;;;5090383;28;20044;-71
2023/05/31 05:57:35;;;;;;;7.00;4.35;;;25.50;47.20;;;;;;5092006;28;20028;-71
2023/05/31 06:00:21;;;;;;;9.65;4.70;;;25.70;47.20;;;;;;5093619;28;20035;-70
2023/05/31 06:02:47;;;;;;;7.97;4.63;;;25.70;47.20;;;;;;5092348;28;20024;-73
2023/05/31 06:05:14;;;;;;;6.07;3.83;;;25.70;47.40;;;;;;5091916;28;20450;-70
2023/05/31 06:07:41;;;;;;;5.45;2.03;;;25.60;45.10;;;;;;5092102;28;20032;-71
2023/05/31 06:10:10;;;;;;;4.65;1.55;;;25.50;42.90;;;;;;5092212;28;20060;-71
2023/05/31 06:12:36;;;;;;;4.40;3.15;;;25.50;41.10;;;;;;5092119;28;20042;-71
2023/05/31 06:15:03;;;;;;;1.33;1.25;;;25.40;40.50;;;;;;5091847;28;20078;-72
2023/05/31 06:17:29;;;;;;;3.50;2.08;;;25.20;40.20;;;;;;5091861;28;20040;-72
2023/05/31 06:19:55;;;;;;;4.47;2.88;;;25.30;40.20;;;;;;5091868;28;20055;-72
2023/05/31 06:22:21;;;;;;;10.40;3.60;;;25.20;40.50;;;;;;5091496;28;20071;-71
2023/05/31 06:24:48;;;;;;;5.88;3.55;;;25.10;40.70;;;;;;5091608;28;20056;-72
2023/05/31 06:27:15;;;;;;;6.00;3.78;;;25.10;40.60;;;;;;5091526;28;20031;-73
2023/05/31 06:29:43;;;;;;;10.23;4.00;;;25.00;40.30;;;;;;5083780;28;20047;-72
2023/05/31 06:32:19;;;;;;;6.70;3.22;;;25.00;41.40;;;;;;5078475;28;20028;-73
2023/05/31 06:34:47;;;;;;;5.38;3.42;;;25.20;41.50;;;;;;5071370;28;20036;-72
2023/05/31 06:37:13;;;;;;;10.98;3.72;;;25.20;41.40;;;;;;5071490;28;20368;-73
2023/05/31 06:39:40;;;;;;;9.60;3.20;;;25.20;41.40;;;;;;5080961;28;20039;-73
2023/05/31 06:42:06;;;;;;;5.68;3.17;;;25.20;41.90;;;;;;5091630;28;20475;-72
2023/05/31 06:44:35;;;;;;;6.68;3.67;;;25.30;41.90;;;;;;5091622;28;20044;-73
2023/05/31 06:47:09;;;;;;;7.93;3.33;;;25.30;41.80;;;;;;5091724;28;20118;-72
2023/05/31 06:49:54;;;;;;;4.75;2.95;;;25.30;41.80;;;;;;5092780;28;20039;-73
2023/05/31 06:52:58;;;;;;;6.88;3.80;;;25.20;41.80;;;;;;5049785;28;20063;-72
2023/05/31 06:55:24;;;;;;;7.30;3.35;;;25.30;42.40;;;;;;5049614;28;20091;-73
2023/05/31 06:57:52;;;;;;;7.97;3.42;;;25.30;43.00;;;;;;5016441;28;20088;-72
2023/05/31 07:00:19;;;;;;;4.95;2.85;;;25.40;42.30;;;;;;4997012;28;20588;-73
2023/05/31 07:02:45;;;;;;;7.50;3.83;;;25.30;42.10;;;;;;4993693;28;20092;-73
2023/05/31 07:05:11;;;;;;;10.52;3.30;;;25.30;41.80;;;;;;5001213;28;20050;-71
2023/05/31 07:07:37;;;;;;;6.10;3.33;;;25.40;41.50;;;;;;4989540;28;20038;-73
2023/05/31 07:10:04;;;;;;;4.80;3.38;;;25.40;41.90;;;;;;4990131;28;20050;-74
2023/05/31 07:12:30;;;;;;;4.82;3.47;;;25.50;41.70;;;;;;4954560;28;20050;-74
2023/05/31 07:14:56;;;;;;;5.78;3.38;;;25.60;41.60;;;;;;4970833;28;20051;-72
2023/05/31 07:17:23;;;;;;;7.50;3.25;;;25.60;41.40;;;;;;4970748;28;20055;-74
2023/05/31 07:19:50;;;;;;;5.20;3.20;;;25.50;41.80;;;;;;4954386;28;20051;-73
2023/05/31 07:22:17;;;;;;;5.65;2.28;;;25.50;41.70;;;;;;4970717;28;20042;-71
2023/05/31 07:24:43;;;;;;;4.28;3.08;;;25.50;41.20;;;;;;4987951;28;20049;-72
2023/05/31 07:27:10;;;;;;;5.85;2.55;;;25.60;41.60;;;;;;4990019;28;20119;-71
2023/05/31 07:29:37;;;;;;;6.60;2.85;;;25.50;41.60;;;;;;4989631;28;20507;-71
2023/05/31 07:32:03;;;;;;;5.57;3.40;;;25.60;41.70;;;;;;5037817;28;20106;-73
2023/05/31 07:34:29;;;;;;;6.97;4.00;;;25.50;41.80;;;;;;5049135;28;20120;-71
2023/05/31 07:36:55;;;;;;;4.28;2.88;;;25.50;42.10;;;;;;5032024;28;20437;-74
2023/05/31 07:39:22;;;;;;;10.57;4.05;;;25.40;42.20;;;;;;5020552;28;20382;-74
2023/05/31 07:41:48;;;;;;;6.65;3.25;;;25.50;42.70;;;;;;5012593;28;20094;-74
2023/05/31 07:44:16;;;;;;;5.07;3.17;;;25.60;42.70;;;;;;5029113;28;20451;-73
2023/05/31 07:46:44;;;;;;;8.15;3.55;;;25.40;42.80;;;;;;5012358;28;20041;-73
2023/05/31 07:49:10;;;;;;;7.40;3.40;;;25.40;42.80;;;;;;5036752;28;20040;-74
2023/05/31 07:51:36;;;;;;;5.68;3.83;;;25.50;42.80;;;;;;5071015;28;20044;-72
2023/05/31 07:54:03;;;;;;;6.45;2.72;;;25.50;43.10;;;;;;5053356;28;20044;-74
2023/05/31 07:56:29;;;;;;;5.72;2.67;;;25.50;43.20;;;;;;5070194;28;20043;-73
2023/05/31 07:58:55;;;;;;;6.65;2.97;;;25.40;43.40;;;;;;5085363;28;20024;-75
2023/05/31 08:01:21;;;;;;;5.57;2.70;;;25.30;43.50;;;;;;5091488;28;20448;-75
2023/05/31 08:03:49;;;;;;;6.85;3.35;;;25.40;43.30;;;;;;5091445;28;20036;-72
2023/05/31 08:06:16;;;;;;;6.70;4.03;;;25.30;43.50;;;;;;5091270;28;20036;-72
2023/05/31 08:08:42;;;;;;;5.28;2.88;;;25.40;43.50;;;;;;5091443;28;20321;-72
2023/05/31 08:11:09;;;;;;;4.20;2.67;;;25.30;43.40;;;;;;5091546;28;20089;-73
2023/05/31 08:13:35;;;;;;;3.92;2.95;;;25.30;43.70;;;;;;5091265;28;20503;-73
2023/05/31 08:16:01;;;;;;;12.05;3.70;;;25.40;45.70;;;;;;5091152;28;20051;-73
2023/05/31 08:18:27;;;;;;;3.63;2.80;;;25.30;45.90;;;;;;5091394;28;20024;-75
2023/05/31 08:20:53;;;;;;;6.75;2.88;;;25.30;45.50;;;;;;5093567;28;20097;-72
2023/05/31 08:23:21;;;;;;;7.30;2.70;;;25.40;46.00;;;;;;5095371;28;20056;-73
2023/05/31 08:25:47;;;;;;;3.33;1.77;;;25.30;45.50;;;;;;5093688;28;20044;-73
2023/05/31 08:28:13;;;;;;;5.78;3.10;;;25.40;45.40;;;;;;5095614;28;20028;-72
2023/05/31 08:30:39;;;;;;;4.05;2.50;;;25.30;45.30;;;;;;5095514;28;20062;-75
2023/05/31 08:33:05;;;;;;;3.33;2.42;;;25.40;45.20;;;;;;5095340;28;20353;-72
2023/05/31 08:35:32;;;;;;;5.72;3.05;;;25.50;45.40;;;;;;5094785;28;20115;-75
2023/05/31 08:37:58;;;;;;;5.35;2.83;;;25.60;45.40;;;;;;5093759;28;20046;-76
2023/05/31 08:40:24;;;;;;;5.43;2.83;;;25.60;46.00;;;;;;5076160;28;20039;-73
2023/05/31 08:42:50;;;;;;;8.27;2.53;;;25.50;46.00;;;;;;5074816;28;20036;-73
2023/05/31 08:45:18;;;;;;;5.90;3.08;;;25.50;48.80;;;;;;5073504;28;20502;-73
2023/05/31 08:47:56;;;;;;;3.97;2.33;;;25.60;49.90;;;;;;5074428;28;20108;-74
2023/05/31 08:50:24;;;;;;;9.73;3.28;;;25.70;49.60;;;;;;5074786;28;20060;-71
2023/05/31 08:52:50;;;;;;;7.50;3.17;;;26.00;51.50;;;;;;5073250;28;20365;-71
2023/05/31 08:55:18;;;;;;;2.58;2.20;;;26.20;52.60;;;;;;5074593;28;20020;-73
2023/05/31 08:57:44;;;;;;;5.45;3.60;;;26.60;49.50;;;;;;5073185;28;20082;-75
2023/05/31 09:00:11;;;;;;;3.35;2.25;;;26.50;49.00;;;;;;5074508;28;20560;-76
2023/05/31 09:02:38;;;;;;;8.85;2.72;;;26.60;46.00;;;;;;5074413;28;20067;-73
2023/05/31 09:05:05;;;;;;;7.93;2.50;;;26.40;44.60;;;;;;5072939;28;20496;-72
2023/05/31 09:07:32;;;;;;;4.32;2.35;;;26.40;44.40;;;;;;5073977;28;20132;-74
2023/05/31 09:09:58;;;;;;;5.28;3.50;;;26.40;44.30;;;;;;5091360;28;20084;-72
2023/05/31 09:12:24;;;;;;;3.67;2.78;;;26.50;44.50;;;;;;5094275;28;20036;-75
2023/05/31 09:14:50;;;;;;;2.83;2.50;;;26.20;44.20;;;;;;5092990;28;20024;-74
2023/05/31 09:17:17;;;;;;;7.07;3.20;;;26.30;44.30;;;;;;5094007;28;20048;-73
2023/05/31 09:19:56;;;;;;;5.50;2.63;;;26.40;44.50;;;;;;5092816;28;20490;-75
2023/05/31 09:22:22;;;;;;;4.45;3.13;;;26.20;44.70;;;;;;5091101;28;20043;-73
2023/05/31 09:24:59;;;;;;;3.05;2.53;;;26.30;44.70;;;;;;5094390;28;20058;-74
2023/05/31 09:27:27;;;;;;;12.70;3.63;;;26.20;44.60;;;;;;5092817;28;20028;-74
2023/05/31 09:29:53;;;;;;;3.63;2.80;;;26.20;45.20;;;;;;5094187;28;20047;-73
2023/05/31 09:32:19;;;;;;;5.70;2.58;;;26.30;45.30;;;;;;5093458;28;20071;-72
2023/05/31 09:34:46;;;;;;;5.68;3.03;;;26.30;45.30;;;;;;5094389;28;20151;-75
2023/05/31 09:37:25;;;;;;;4.82;2.20;;;26.20;44.50;;;;;;5094158;28;20050;-72
2023/05/31 09:39:56;;;;;;;5.53;3.05;;;26.20;45.40;;;;;;5094540;28;20422;-77
2023/05/31 09:42:29;;;;;;;6.18;2.30;;;26.30;45.40;;;;;;5088795;28;20088;-72
2023/05/31 09:44:55;;;;;;;8.02;2.92;;;26.40;45.50;;;;;;5091988;28;20535;-71
2023/05/31 09:47:27;;;;;;;2.65;2.45;;;26.40;45.50;;;;;;5092472;28;20115;-73
2023/05/31 09:49:54;;;;;;;5.30;1.83;;;26.30;45.40;;;;;;5093900;28;20062;-73
2023/05/31 09:52:30;;;;;;;3.75;2.72;;;26.30;45.70;;;;;;5092071;28;20036;-73
2023/05/31 09:54:57;;;;;;;6.22;2.78;;;26.20;45.60;;;;;;5092164;28;20028;-74
2023/05/31 09:57:40;;;;;;;5.47;2.63;;;26.20;45.80;;;;;;5092533;28;20084;-74
2023/05/31 10:00:18;;;;;;;7.18;3.05;;;26.40;45.90;;;;;;5092601;28;20032;-73
2023/05/31 10:02:55;;;;;;;6.07;3.95;;;26.30;44.80;;;;;;5093710;28;20040;-73
2023/05/31 10:05:21;;;;;;;6.07;2.92;;;26.40;49.10;;;;;;5093570;28;20048;-73
2023/05/31 10:07:50;;;;;;;7.40;3.33;;;26.90;53.60;;;;;;5080781;28;20033;-75
2023/05/31 10:10:22;;;;;;;3.33;2.85;;;27.10;51.90;;;;;;5073471;28;20060;-76
2023/05/31 10:12:52;;;;;;;9.98;3.65;;;27.10;50.30;;;;;;5073380;28;20032;-75
2023/05/31 10:15:22;;;;;;;6.65;2.25;;;26.90;47.50;;;;;;5073881;28;20112;-74
2023/05/31 10:18:00;;;;;;;3.53;2.80;;;26.80;46.90;;;;;;5086754;28;20475;-75
2023/05/31 10:20:32;;;;;;;4.47;2.90;;;26.80;50.30;;;;;;5092211;28;20024;-76
2023/05/31 10:23:04;;;;;;;6.57;3.33;;;27.00;53.70;;;;;;5092111;28;20039;-73
2023/05/31 10:25:46;;;;;;;6.73;3.97;;;27.30;59.80;;;;;;5093529;28;20044;-76
2023/05/31 10:28:17;;;;;;;3.13;2.72;;;27.40;60.70;;;;;;5090851;28;20405;-76
2023/05/31 10:30:45;;;;;;;5.78;3.05;;;27.70;64.40;;;;;;5070322;28;20045;-72
2023/05/31 10:33:13;;;;;;;3.50;2.67;;;27.90;57.40;;;;;;5070098;28;20124;-75
2023/05/31 10:35:40;;;;;;;4.05;2.78;;;27.70;50.50;;;;;;5070296;28;20032;-75
2023/05/31 10:38:06;;;;;;;3.67;2.35;;;27.60;48.70;;;;;;5069940;28;20059;-75
2023/05/31 10:40:43;;;;;;;3.65;2.63;;;27.30;48.10;;;;;;5051619;28;20184;-75
2023/05/31 10:43:18;;;;;;;3.88;2.72;;;27.30;47.50;;;;;;5050653;28;20057;-73
2023/05/31 10:45:50;;;;;;;3.85;2.28;;;27.30;46.50;;;;;;5033491;28;20063;-75
2023/05/31 10:48:22;;;;;;;4.03;2.50;;;27.10;46.60;;;;;;5051598;28;20477;-76
2023/05/31 10:50:52;;;;;;;7.65;3.65;;;27.10;46.40;;;;;;5050961;28;20049;-74
2023/05/31 10:53:19;;;;;;;4.63;2.70;;;27.10;47.00;;;;;;5056772;28;20041;-75
2023/05/31 10:55:47;;;;;;;7.68;2.92;;;27.00;46.80;;;;;;5056091;28;20041;-73
2023/05/31 10:58:36;;;;;;;4.22;2.65;;;27.10;47.10;;;;;;5055423;28;20048;-74
2023/05/31 11:01:05;;;;;;;5.60;2.28;;;27.20;46.70;;;;;;5024123;28;20097;-76
2023/05/31 11:03:34;;;;;;;3.00;2.53;;;26.90;46.50;;;;;;5071759;28;20059;-77
2023/05/31 11:06:08;;;;;;;7.25;2.42;;;27.10;46.90;;;;;;5072549;28;20042;-75
2023/05/31 11:08:35;;;;;;;3.17;2.28;;;27.00;46.90;;;;;;5071905;28;20037;-73
2023/05/31 11:11:27;;;;;;;3.05;2.20;;;26.90;46.50;;;;;;5070824;28;20047;-75
2023/05/31 11:14:00;;;;;;;12.77;3.42;;;26.90;46.70;;;;;;5071843;28;20460;-75
2023/05/31 11:16:27;;;;;;;5.57;2.83;;;26.80;48.60;;;;;;5074218;28;20032;-73
2023/05/31 11:19:07;;;;;;;3.33;2.47;;;27.00;55.00;;;;;;5091940;28;20073;-75
2023/05/31 11:21:47;;;;;;;3.78;3.08;;;27.00;56.50;;;;;;5091778;28;20063;-75
2023/05/31 11:24:44;;;;;;;3.13;2.80;;;27.20;57.00;;;;;;5090194;28;20210;-75
2023/05/31 11:27:13;;;;;;;10.32;3.05;;;27.40;57.10;;;;;;5091633;28;20044;-74
2023/05/31 11:29:48;;;;;;;2.97;2.67;;;27.30;54.90;;;;;;5091725;28;20024;-76
2023/05/31 11:32:22;;;;;;;4.53;3.25;;;27.30;48.90;;;;;;5091311;28;20028;-75
2023/05/31 11:35:17;;;;;;;5.32;2.88;;;27.10;49.20;;;;;;5090885;28;20089;-75
2023/05/31 11:37:43;;;;;;;3.75;2.53;;;27.10;49.00;;;;;;5091315;28;20040;-74
2023/05/31 11:40:15;;;;;;;4.63;2.58;;;27.10;48.60;;;;;;5074909;28;20086;-73
2023/05/31 11:42:45;;;;;;;2.80;2.20;;;27.10;48.80;;;;;;5070026;28;20144;-72
2023/05/31 11:45:14;;;;;;;5.28;2.50;;;27.10;47.80;;;;;;5071172;28;20033;-74
2023/05/31 11:47:48;;;;;;;6.50;2.90;;;27.10;48.70;;;;;;5080204;28;20047;-75
2023/05/31 11:50:17;;;;;;;7.07;2.30;;;26.90;48.30;;;;;;5091382;28;20095;-73
2023/05/31 11:52:44;;;;;;;3.00;2.47;;;26.90;48.40;;;;;;5091344;28;20043;-72
2023/05/31 11:55:11;;;;;;;2.95;2.38;;;26.90;48.50;;;;;;5091267;28;20032;-75
2023/05/31 11:57:41;;;;;;;9.15;2.58;;;26.90;48.00;;;;;;5091023;28;20388;-75
2023/05/31 12:00:11;;;;;;;2.75;2.17;;;26.90;48.50;;;;;;5091635;28;20040;-74
2023/05/31 12:02:39;;;;;;;3.13;2.50;;;26.80;48.30;;;;;;5056972;28;20116;-75
2023/05/31 12:05:05;;;;;;;5.75;2.20;;;26.80;48.00;;;;;;5091335;28;20062;-73
2023/05/31 12:07:32;;;;;;;5.97;2.80;;;26.90;50.50;;;;;;5091125;28;20036;-75
2023/05/31 12:09:58;;;;;;;3.75;2.88;;;26.80;51.70;;;;;;5091314;28;20031;-73
2023/05/31 12:12:25;;;;;;;4.30;2.38;;;26.90;50.60;;;;;;5091126;28;20020;-72
2023/05/31 12:14:52;;;;;;;4.03;2.63;;;26.90;49.80;;;;;;5091430;28;20032;-72
2023/05/31 12:17:19;;;;;;;3.30;2.30;;;26.80;49.30;;;;;;5091080;28;20036;-72
2023/05/31 12:19:48;;;;;;;8.15;2.90;;;26.90;49.20;;;;;;5091026;28;20043;-73
2023/05/31 12:22:14;;;;;;;7.38;3.03;;;26.90;48.60;;;;;;5091006;28;20036;-73
2023/05/31 12:24:54;;;;;;;4.53;2.75;;;26.90;48.80;;;;;;5089419;28;20040;-74
2023/05/31 12:27:22;;;;;;;1.75;1.45;;;26.90;48.50;;;;;;5089918;28;20107;-72
2023/05/31 12:29:48;;;;;;;3.95;2.55;;;26.70;48.60;;;;;;5091190;28;20028;-71
2023/05/31 12:32:20;;;;;;;4.72;2.80;;;26.80;48.80;;;;;;5091171;28;20032;-74
2023/05/31 12:34:47;;;;;;;3.00;1.97;;;26.80;48.50;;;;;;5091040;28;20049;-73
2023/05/31 12:37:13;;;;;;;6.22;2.58;;;26.70;48.30;;;;;;5091119;28;20028;-74
2023/05/31 12:39:39;;;;;;;4.93;2.72;;;26.80;48.60;;;;;;5079468;28;20028;-73
2023/05/31 12:42:06;;;;;;;4.90;2.05;;;26.80;48.60;;;;;;5069731;28;20036;-71
2023/05/31 12:44:35;;;;;;;3.28;1.70;;;26.70;48.50;;;;;;5070772;28;20143;-74
2023/05/31 12:47:07;;;;;;;6.00;2.55;;;26.60;48.70;;;;;;5070990;28;20157;-74
2023/05/31 12:49:35;;;;;;;4.13;1.90;;;26.70;48.60;;;;;;5070728;28;20036;-73
2023/05/31 12:52:10;;;;;;;5.63;2.63;;;26.60;48.00;;;;;;5051654;28;20403;-73
2023/05/31 12:54:39;;;;;;;5.07;2.63;;;26.60;47.90;;;;;;5068337;28;20106;-74